North Berwick, United Kingdom
Current Conditions -  °F | °C
As of 6:50 PM on Friday 24 Oct 2014 (Local Time) from EGQL Reporting Station
Clear Clear  
Wind Chill: 50°   Ceiling: Unl
Heat Index: 50°   Visibility: 6mi
Dew Point: 43°   Wind: 17mph
Humidity: 76%   Direction: 250°WSW
Pressure: 29.68"   Gusts: NA
Location:  56.06°N, 2.72°W
Report Text: EGQL 241750Z 25015KT CAVOK 10/06 Q1005 BLU
Loading
Personal Weather Stations






























Interactive Weather Map
Tropical Storm Tracking
New forecast layout! Learn more

10-Day Weather Forecast

Advertisements
Track Severe Weather on mobile